createdAt,value
2019-03-03T00:01:43.362Z,82.90
2019-03-03T00:04:10.364Z,83.10
2019-03-03T00:06:37.474Z,83.00
2019-03-03T00:09:05.102Z,83.00
2019-03-03T00:11:33.979Z,83.70
2019-03-03T00:14:02.042Z,82.70
2019-03-03T00:16:29.356Z,83.00
2019-03-03T00:18:56.974Z,82.50
2019-03-03T00:21:25.097Z,83.30
2019-03-03T00:23:52.390Z,82.00
2019-03-03T00:26:19.641Z,82.00
2019-03-03T00:28:46.827Z,81.90
2019-03-03T00:31:14.683Z,81.90
2019-03-03T00:33:41.781Z,81.80
2019-03-03T00:36:08.849Z,81.80
2019-03-03T00:38:37.673Z,81.60
2019-03-03T00:41:09.510Z,81.70
2019-03-03T00:43:50.349Z,82.10
2019-03-03T00:46:34.396Z,81.80
2019-03-03T00:49:03.374Z,81.80
2019-03-03T00:51:38.387Z,81.70
2019-03-03T00:54:25.981Z,82.00
2019-03-03T00:56:54.807Z,81.50
2019-03-03T00:59:29.618Z,81.50
2019-03-03T01:02:13.942Z,81.60
2019-03-03T01:04:43.056Z,80.90
2019-03-03T01:07:18.280Z,81.10
2019-03-03T01:09:56.221Z,80.40
2019-03-03T01:12:37.261Z,81.10
2019-03-03T01:15:24.985Z,80.50
2019-03-03T01:17:53.771Z,80.00
2019-03-03T01:20:28.674Z,80.70
2019-03-03T01:22:57.520Z,80.10
2019-03-03T01:25:24.569Z,80.20
2019-03-03T01:27:51.621Z,80.00
2019-03-03T01:30:18.845Z,80.40
2019-03-03T01:32:46.769Z,80.50
2019-03-03T01:35:14.722Z,80.70
2019-03-03T01:37:41.889Z,80.20
2019-03-03T01:40:10.201Z,80.50
2019-03-03T01:42:37.316Z,80.60
2019-03-03T01:45:14.265Z,80.20
2019-03-03T01:47:41.405Z,80.50
2019-03-03T01:50:10.630Z,80.20
2019-03-03T01:52:37.797Z,80.20
2019-03-03T01:55:07.462Z,80.50
2019-03-03T01:57:34.557Z,80.70
2019-03-03T02:00:15.220Z,80.60
2019-03-03T02:02:42.304Z,83.00
2019-03-03T02:05:09.370Z,80.70
2019-03-03T02:07:41.947Z,80.40
2019-03-03T02:10:09.173Z,80.80
2019-03-03T02:12:36.538Z,80.60
2019-03-03T02:15:05.889Z,80.60
2019-03-03T02:17:33.133Z,80.50
2019-03-03T02:20:01.136Z,80.40
2019-03-03T02:22:28.278Z,80.40
2019-03-03T02:24:55.242Z,80.40
2019-03-03T02:27:23.382Z,80.20
2019-03-03T02:29:51.392Z,79.50
2019-03-03T02:32:18.471Z,79.80
2019-03-03T02:34:45.510Z,79.70
2019-03-03T02:37:12.560Z,79.10
2019-03-03T02:39:39.609Z,79.30
2019-03-03T02:42:06.735Z,79.40
2019-03-03T02:44:33.703Z,79.40
2019-03-03T02:47:00.835Z,79.40
2019-03-03T02:49:30.196Z,79.20
2019-03-03T02:51:57.237Z,79.70
2019-03-03T02:54:24.295Z,79.70
2019-03-03T02:56:51.390Z,79.80
2019-03-03T02:59:18.435Z,80.10
2019-03-03T03:01:47.499Z,79.80
2019-03-03T03:04:14.665Z,79.70
2019-03-03T03:06:43.522Z,79.20
2019-03-03T03:09:15.429Z,78.80
2019-03-03T03:11:47.086Z,78.80
2019-03-03T03:14:18.753Z,78.70
2019-03-03T03:16:59.702Z,78.40
2019-03-03T03:19:34.494Z,78.50
2019-03-03T03:22:04.429Z,78.70
2019-03-03T03:24:36.035Z,78.70
2019-03-03T03:27:14.315Z,79.10
2019-03-03T03:29:43.155Z,78.50
2019-03-03T03:32:17.850Z,78.70
2019-03-03T03:34:55.341Z,78.60
2019-03-03T03:37:24.247Z,78.80
2019-03-03T03:40:05.323Z,79.10
2019-03-03T03:42:34.230Z,79.00
2019-03-03T03:45:06.120Z,79.10
2019-03-03T03:47:37.770Z,79.50
2019-03-03T03:50:18.221Z,79.70
2019-03-03T03:52:47.074Z,79.60
2019-03-03T03:55:18.998Z,79.90
2019-03-03T03:57:56.636Z,80.10
2019-03-03T04:00:44.058Z,80.60
2019-03-03T04:03:15.313Z,80.80
2019-03-03T04:05:44.156Z,80.70
2019-03-03T04:08:18.887Z,81.10
2019-03-03T04:11:02.533Z,81.40
2019-03-03T04:13:43.202Z,82.60
2019-03-03T04:16:14.853Z,82.00
2019-03-03T04:18:49.482Z,82.20
2019-03-03T04:21:18.097Z,82.50
2019-03-03T04:23:55.947Z,82.90
2019-03-03T04:26:27.776Z,83.10
2019-03-03T04:29:13.390Z,83.30
2019-03-03T04:31:57.539Z,83.70
2019-03-03T04:34:26.546Z,83.70
2019-03-03T04:36:58.138Z,83.80
2019-03-03T04:39:33.106Z,84.00
2019-03-03T04:42:11.190Z,84.20
2019-03-03T04:44:40.102Z,84.50
2019-03-03T04:47:17.455Z,84.80
2019-03-03T04:49:55.358Z,84.70
2019-03-03T04:52:24.141Z,84.70
2019-03-03T04:55:09.653Z,84.50
2019-03-03T04:57:38.462Z,84.70
2019-03-03T05:00:17.132Z,85.00
2019-03-03T05:02:46.021Z,85.00
2019-03-03T05:05:15.766Z,86.20
2019-03-03T05:07:50.686Z,85.70
2019-03-03T05:10:19.560Z,86.00
2019-03-03T05:12:51.626Z,85.90
2019-03-03T05:15:22.885Z,85.90
2019-03-03T05:17:54.217Z,85.80
2019-03-03T05:20:21.362Z,87.80
2019-03-03T05:22:48.348Z,86.50
2019-03-03T05:25:15.368Z,86.30
2019-03-03T05:27:42.450Z,86.20
2019-03-03T05:30:11.652Z,86.40
2019-03-03T05:32:38.918Z,86.00
2019-03-03T05:35:07.070Z,85.90
2019-03-03T05:37:35.141Z,86.00
2019-03-03T05:40:03.741Z,86.20
2019-03-03T05:42:30.999Z,86.10
2019-03-03T05:44:58.061Z,86.20
2019-03-03T05:47:25.197Z,86.50
2019-03-03T05:49:52.277Z,86.60
2019-03-03T05:52:19.337Z,86.70
2019-03-03T05:54:46.398Z,87.00
2019-03-03T05:57:13.365Z,87.10
2019-03-03T05:59:40.393Z,87.30
2019-03-03T06:02:07.458Z,87.70
2019-03-03T06:04:35.007Z,88.20
2019-03-03T06:07:04.522Z,88.50
2019-03-03T06:09:32.713Z,89.20
2019-03-03T06:11:59.977Z,90.00
2019-03-03T06:14:27.158Z,90.00
2019-03-03T06:16:54.241Z,89.80
2019-03-03T06:19:21.407Z,89.90
2019-03-03T06:21:48.569Z,89.80
2019-03-03T06:24:15.649Z,89.50
2019-03-03T06:26:42.693Z,89.50
2019-03-03T06:29:10.505Z,89.50
2019-03-03T06:31:37.541Z,89.50
2019-03-03T06:34:04.616Z,89.60
2019-03-03T06:36:31.702Z,89.70
2019-03-03T06:38:58.837Z,90.00
2019-03-03T06:41:25.829Z,90.00
2019-03-03T06:43:53.047Z,90.10
2019-03-03T06:46:20.080Z,90.10
2019-03-03T06:48:47.128Z,90.20
2019-03-03T06:51:14.176Z,90.30
2019-03-03T06:53:41.223Z,90.30
2019-03-03T06:56:08.271Z,90.10
2019-03-03T06:58:35.292Z,90.10
2019-03-03T07:01:02.342Z,90.20
2019-03-03T07:03:29.397Z,90.20
2019-03-03T07:05:56.654Z,90.30
2019-03-03T07:08:23.665Z,90.40
2019-03-03T07:10:50.749Z,90.50
2019-03-03T07:13:17.814Z,90.50
2019-03-03T07:15:44.877Z,90.40
2019-03-03T07:18:12.246Z,90.00
2019-03-03T07:20:39.427Z,89.90
2019-03-03T07:23:06.476Z,88.20
2019-03-03T07:25:33.524Z,88.50
2019-03-03T07:28:06.598Z,87.10
2019-03-03T07:30:33.786Z,88.70
2019-03-03T07:33:05.562Z,86.00
2019-03-03T07:35:32.728Z,84.90
2019-03-03T07:37:59.849Z,83.70
2019-03-03T07:40:27.838Z,84.40
2019-03-03T07:42:55.010Z,83.80
2019-03-03T07:45:22.163Z,83.10
2019-03-03T07:47:50.045Z,80.70
2019-03-03T07:50:17.238Z,80.80
2019-03-03T07:52:44.455Z,81.00
2019-03-03T07:55:12.432Z,82.00
2019-03-03T07:57:39.616Z,82.40
2019-03-03T08:00:13.144Z,78.40
2019-03-03T08:02:40.301Z,79.30
2019-03-03T08:05:09.012Z,78.50
2019-03-03T08:07:36.193Z,78.50
2019-03-03T08:10:06.562Z,77.90
2019-03-03T08:12:33.607Z,79.50
2019-03-03T08:15:00.663Z,77.50
2019-03-03T08:17:27.745Z,78.50
2019-03-03T08:19:54.765Z,78.50
2019-03-03T08:22:21.841Z,77.60
2019-03-03T08:24:51.363Z,74.80
2019-03-03T08:27:18.617Z,76.40
2019-03-03T08:29:45.626Z,77.10
2019-03-03T08:32:12.721Z,76.40
2019-03-03T08:34:39.696Z,74.20
2019-03-03T08:37:06.744Z,77.00
2019-03-03T08:39:33.803Z,74.00
2019-03-03T08:42:02.710Z,75.20
2019-03-03T08:44:31.565Z,73.70
2019-03-03T08:47:03.202Z,72.40
2019-03-03T08:49:50.183Z,74.10
2019-03-03T08:52:19.482Z,70.70
2019-03-03T08:54:51.000Z,73.70
2019-03-03T08:57:25.687Z,71.30
2019-03-03T08:59:55.541Z,69.20
2019-03-03T09:02:25.303Z,70.20
2019-03-03T09:04:57.023Z,69.50
2019-03-03T09:07:35.341Z,71.50
2019-03-03T09:10:11.017Z,70.70
2019-03-03T09:12:39.853Z,69.00
2019-03-03T09:15:23.100Z,69.10
2019-03-03T09:17:57.936Z,70.50
2019-03-03T09:20:33.149Z,71.20
2019-03-03T09:23:17.061Z,69.10
2019-03-03T09:25:48.795Z,66.60
2019-03-03T09:28:20.574Z,69.20
2019-03-03T09:31:01.541Z,65.60
2019-03-03T09:33:30.637Z,65.70
2019-03-03T09:36:08.118Z,64.40
2019-03-03T09:38:49.281Z,62.70
2019-03-03T09:41:34.686Z,64.20
2019-03-03T09:44:03.494Z,63.40
2019-03-03T09:46:38.305Z,64.10
2019-03-03T09:49:10.069Z,64.20
2019-03-03T09:51:50.704Z,64.20
2019-03-03T09:54:23.056Z,63.50
2019-03-03T09:56:57.658Z,64.60
2019-03-03T09:59:32.032Z,64.30
2019-03-03T10:02:00.883Z,63.30
2019-03-03T10:04:48.189Z,64.00
2019-03-03T10:07:18.054Z,63.00
2019-03-03T10:09:52.681Z,62.60
2019-03-03T10:12:21.633Z,62.50
2019-03-03T10:14:59.534Z,62.20
2019-03-03T10:17:34.266Z,61.60
2019-03-03T10:20:02.843Z,62.20
2019-03-03T10:22:45.850Z,59.90
2019-03-03T10:25:15.679Z,62.40
2019-03-03T10:27:50.378Z,61.20
2019-03-03T10:30:19.608Z,58.50
2019-03-03T10:33:00.586Z,58.00
2019-03-03T10:35:46.129Z,59.60
2019-03-03T10:38:17.542Z,58.10
2019-03-03T10:40:55.444Z,62.10
2019-03-03T10:43:27.066Z,58.40
2019-03-03T10:46:01.950Z,58.00
2019-03-03T10:48:37.898Z,58.20
2019-03-03T10:51:15.868Z,57.90
2019-03-03T10:53:53.386Z,58.70
2019-03-03T10:56:23.381Z,57.40
2019-03-03T10:58:52.256Z,57.70
2019-03-03T11:01:33.382Z,57.40
2019-03-03T11:04:02.378Z,57.00
2019-03-03T11:06:34.286Z,55.90
2019-03-03T11:09:03.181Z,56.50
2019-03-03T11:11:43.060Z,55.10
2019-03-03T11:14:14.954Z,55.50
2019-03-03T11:17:02.091Z,55.00
2019-03-03T11:19:33.591Z,56.90
2019-03-03T11:25:02.196Z,54.50
2019-03-03T11:27:34.307Z,55.00
2019-03-03T11:30:05.978Z,54.80
2019-03-03T11:32:47.464Z,55.90
2019-03-03T11:35:22.238Z,55.50
2019-03-03T11:37:51.083Z,56.30
2019-03-03T11:40:19.916Z,55.50
2019-03-03T11:43:05.486Z,55.70
2019-03-03T11:45:38.483Z,56.10
2019-03-03T11:48:19.926Z,56.00
2019-03-03T11:51:01.261Z,56.00
2019-03-03T11:53:30.297Z,56.40
2019-03-03T11:56:15.703Z,56.40
2019-03-03T11:58:44.564Z,56.50
2019-03-03T12:01:25.848Z,56.20
2019-03-03T12:04:11.401Z,57.70
2019-03-03T12:06:46.848Z,58.10
2019-03-03T12:09:24.717Z,57.00
2019-03-03T12:11:59.599Z,57.20
2019-03-03T12:14:28.409Z,57.20
2019-03-03T12:16:57.280Z,56.40
2019-03-03T12:19:26.261Z,56.60
2019-03-03T12:21:57.895Z,56.80
2019-03-03T12:24:42.217Z,57.40
2019-03-03T12:27:17.299Z,56.80
2019-03-03T12:29:51.983Z,56.80
2019-03-03T12:32:20.914Z,57.00
2019-03-03T12:35:03.698Z,56.10
2019-03-03T12:37:38.737Z,57.90
2019-03-03T12:40:11.055Z,58.00
2019-03-03T12:42:52.253Z,58.80
2019-03-03T12:45:21.057Z,59.10
2019-03-03T12:48:02.269Z,58.60
2019-03-03T12:50:33.911Z,58.20
2019-03-03T12:53:03.811Z,58.30
2019-03-03T12:55:38.640Z,57.10
2019-03-03T12:58:22.747Z,57.40
2019-03-03T13:01:00.785Z,57.40
2019-03-03T13:03:29.865Z,57.80
2019-03-03T13:06:07.764Z,57.30
2019-03-03T13:08:46.779Z,57.80
2019-03-03T13:11:15.771Z,57.40
2019-03-03T13:14:03.036Z,57.40
2019-03-03T13:16:48.185Z,58.20
2019-03-03T13:19:17.090Z,58.10
2019-03-03T13:21:51.507Z,57.70
2019-03-03T13:24:23.208Z,56.00
2019-03-03T13:27:09.077Z,55.50
2019-03-03T13:29:38.312Z,55.50
2019-03-03T13:32:16.565Z,54.70
2019-03-03T13:34:55.378Z,55.90
2019-03-03T13:37:36.600Z,55.70
2019-03-03T13:40:08.429Z,55.40
2019-03-03T13:42:37.245Z,53.30
2019-03-03T13:45:07.930Z,53.50
2019-03-03T13:47:35.003Z,53.90
2019-03-03T13:50:02.531Z,54.60
2019-03-03T13:52:29.505Z,55.00
2019-03-03T13:54:56.629Z,54.30
2019-03-03T13:57:23.614Z,53.80
2019-03-03T13:59:50.769Z,54.30
2019-03-03T14:02:17.790Z,52.90
2019-03-03T14:04:46.741Z,53.80
2019-03-03T14:07:13.720Z,55.10
2019-03-03T14:09:40.841Z,54.20
2019-03-03T14:12:07.813Z,53.90
2019-03-03T14:14:34.926Z,55.50
2019-03-03T14:17:01.919Z,55.30
2019-03-03T14:19:28.973Z,54.10
2019-03-03T14:21:56.005Z,56.10
2019-03-03T14:24:23.352Z,55.40
2019-03-03T14:26:50.491Z,56.00
2019-03-03T14:29:17.648Z,57.80
2019-03-03T14:31:44.962Z,55.90
2019-03-03T14:34:13.050Z,56.10
2019-03-03T14:36:40.193Z,56.10
2019-03-03T14:39:07.333Z,56.30
2019-03-03T14:41:35.990Z,55.90
2019-03-03T14:44:03.076Z,56.90
2019-03-03T14:46:30.635Z,56.20
2019-03-03T14:48:57.730Z,55.60
2019-03-03T14:51:24.901Z,57.00
2019-03-03T14:53:51.931Z,57.10
2019-03-03T14:56:20.277Z,57.40
2019-03-03T14:58:47.306Z,57.70
2019-03-03T15:01:16.816Z,58.50
2019-03-03T15:03:43.878Z,58.70
2019-03-03T15:06:11.757Z,58.90
2019-03-03T15:08:38.730Z,58.70
2019-03-03T15:11:05.770Z,59.90
2019-03-03T15:13:32.817Z,60.00
2019-03-03T15:15:59.963Z,60.50
2019-03-03T15:18:27.029Z,60.80
2019-03-03T15:20:54.181Z,60.80
2019-03-03T15:23:22.188Z,61.50
2019-03-03T15:25:49.367Z,61.60
2019-03-03T15:28:16.455Z,62.00
2019-03-03T15:30:43.602Z,61.90
2019-03-03T15:33:10.710Z,61.70
2019-03-03T15:35:37.824Z,61.70
2019-03-03T15:38:04.959Z,62.40
2019-03-03T15:40:32.653Z,62.40
2019-03-03T15:42:59.790Z,62.40
2019-03-03T15:45:27.840Z,62.30
2019-03-03T15:47:55.050Z,62.00
2019-03-03T15:50:35.266Z,61.80
2019-03-03T15:53:02.387Z,62.50
2019-03-03T15:55:30.893Z,62.60
2019-03-03T15:57:58.063Z,63.70
2019-03-03T16:00:31.221Z,64.80
2019-03-03T16:02:58.649Z,66.40
2019-03-03T16:05:25.719Z,67.40
2019-03-03T16:07:52.770Z,67.20
2019-03-03T16:10:21.809Z,68.00
2019-03-03T16:12:48.810Z,69.50
2019-03-03T16:15:16.426Z,68.50
2019-03-03T16:17:43.487Z,69.90
2019-03-03T16:20:18.612Z,69.40
2019-03-03T16:22:45.667Z,69.50
2019-03-03T16:25:14.709Z,69.10
2019-03-03T16:27:41.878Z,69.40
2019-03-03T16:30:12.362Z,68.90
2019-03-03T16:32:39.518Z,68.70
2019-03-03T16:35:06.776Z,68.80
2019-03-03T16:37:33.838Z,68.80
2019-03-03T16:40:00.977Z,69.10
2019-03-03T16:42:28.145Z,69.60
2019-03-03T16:44:55.185Z,71.00
2019-03-03T16:47:22.273Z,70.30
2019-03-03T16:49:49.349Z,70.50
2019-03-03T16:52:16.400Z,70.50
2019-03-03T16:54:43.478Z,70.20
2019-03-03T16:57:10.561Z,69.90
2019-03-03T16:59:37.798Z,70.70
2019-03-03T17:02:04.804Z,70.80
2019-03-03T17:04:32.016Z,71.40
2019-03-03T17:06:59.006Z,71.30
2019-03-03T17:09:26.214Z,71.70
2019-03-03T17:12:06.530Z,71.90
2019-03-03T17:14:33.718Z,73.00
2019-03-03T17:17:00.758Z,72.70
2019-03-03T17:19:33.285Z,72.60
2019-03-03T17:22:00.361Z,73.00
2019-03-03T17:24:27.413Z,73.40
2019-03-03T17:26:54.425Z,73.50
2019-03-03T17:29:21.494Z,74.10
2019-03-03T17:31:48.645Z,74.50
2019-03-03T17:34:15.792Z,75.40
2019-03-03T17:36:42.832Z,76.30
2019-03-03T17:39:09.861Z,76.40
2019-03-03T17:41:36.961Z,77.50
2019-03-03T17:44:04.185Z,78.30
2019-03-03T17:46:31.518Z,77.70
2019-03-03T17:48:58.521Z,78.60
2019-03-03T17:51:25.614Z,78.30
2019-03-03T17:53:52.867Z,78.50
2019-03-03T17:56:19.949Z,79.50
2019-03-03T17:58:47.189Z,79.70
2019-03-03T18:01:14.277Z,78.80
2019-03-03T18:03:41.342Z,80.40
2019-03-03T18:06:08.389Z,79.90
2019-03-03T18:08:35.354Z,80.40
2019-03-03T18:11:02.521Z,80.00
2019-03-03T18:13:29.638Z,79.50
2019-03-03T18:15:56.781Z,79.60
2019-03-03T18:18:23.918Z,79.80
2019-03-03T18:20:51.052Z,80.80
2019-03-03T18:23:20.057Z,80.70
2019-03-03T18:25:47.266Z,80.80
2019-03-03T18:28:14.318Z,81.80
2019-03-03T18:30:41.360Z,81.30
2019-03-03T18:33:08.391Z,80.80
2019-03-03T18:35:35.522Z,81.10
2019-03-03T18:38:02.525Z,81.10
2019-03-03T18:40:29.770Z,81.90
2019-03-03T18:42:58.345Z,83.20
2019-03-03T18:45:25.469Z,82.50
2019-03-03T18:47:53.540Z,82.20
2019-03-03T18:50:24.583Z,83.40
2019-03-03T18:52:51.558Z,83.10
2019-03-03T18:55:18.582Z,82.00
2019-03-03T18:57:45.629Z,82.30
2019-03-03T19:00:15.858Z,81.70
2019-03-03T19:02:43.045Z,82.20
2019-03-03T19:05:10.189Z,82.50
2019-03-03T19:07:37.288Z,83.90
2019-03-03T19:10:08.006Z,83.80
2019-03-03T19:12:35.387Z,84.00
2019-03-03T19:15:08.481Z,85.60
2019-03-03T19:17:35.563Z,87.30
2019-03-03T19:20:10.290Z,87.40
2019-03-03T19:22:37.465Z,87.40
2019-03-03T19:25:07.609Z,87.00
2019-03-03T19:27:34.777Z,86.80
2019-03-03T19:30:11.587Z,86.40
2019-03-03T19:32:38.741Z,87.20
2019-03-03T19:35:08.141Z,85.90
2019-03-03T19:37:35.294Z,86.80
2019-03-03T19:40:02.748Z,86.50
2019-03-03T19:42:30.875Z,86.70
2019-03-03T19:44:58.010Z,86.60
2019-03-03T19:47:25.087Z,87.10
2019-03-03T19:49:52.146Z,87.10
2019-03-03T19:52:19.261Z,87.00
2019-03-03T19:54:46.319Z,87.60
2019-03-03T19:57:14.377Z,87.90
2019-03-03T19:59:41.441Z,87.80
2019-03-03T20:02:08.604Z,88.10
2019-03-03T20:04:35.790Z,87.70
2019-03-03T20:07:03.775Z,86.90
2019-03-03T20:09:30.886Z,86.60
2019-03-03T20:11:58.007Z,86.70
2019-03-03T20:14:25.340Z,87.30
2019-03-03T20:16:52.382Z,87.70
2019-03-03T20:19:19.539Z,87.80
2019-03-03T20:21:46.542Z,87.40
2019-03-03T20:24:13.615Z,86.90
2019-03-03T20:26:40.986Z,86.80
2019-03-03T20:29:08.126Z,87.70
2019-03-03T20:31:35.212Z,87.10
2019-03-03T20:34:02.282Z,87.20
2019-03-03T20:36:30.514Z,86.90
2019-03-03T20:38:57.605Z,86.80
2019-03-03T20:41:24.872Z,87.20
2019-03-03T20:43:51.972Z,87.40
2019-03-03T20:46:20.133Z,87.30
2019-03-03T20:48:47.369Z,87.70
2019-03-03T20:51:14.508Z,87.50
2019-03-03T20:53:41.663Z,87.70
2019-03-03T20:56:08.712Z,87.60
2019-03-03T20:58:35.775Z,87.50
2019-03-03T21:01:03.197Z,87.80
2019-03-03T21:03:32.288Z,87.70
2019-03-03T21:05:59.341Z,90.10
2019-03-03T21:08:26.455Z,87.50
2019-03-03T21:10:53.504Z,87.50
2019-03-03T21:13:20.634Z,87.40
2019-03-03T21:15:47.662Z,87.20
2019-03-03T21:18:14.685Z,87.30
2019-03-03T21:20:41.853Z,87.40
2019-03-03T21:23:08.895Z,87.40
2019-03-03T21:25:35.953Z,88.30
2019-03-03T21:28:03.019Z,87.70
2019-03-03T21:30:30.357Z,87.80
2019-03-03T21:33:05.144Z,88.00
2019-03-03T21:35:32.119Z,88.10
2019-03-03T21:37:59.250Z,88.10
2019-03-03T21:40:26.860Z,88.20
2019-03-03T21:42:54.237Z,88.00
2019-03-03T21:45:26.630Z,88.00
2019-03-03T21:47:54.418Z,87.90
2019-03-03T21:50:23.816Z,87.80
2019-03-03T21:52:53.286Z,88.00
2019-03-03T21:55:20.380Z,88.00
2019-03-03T21:57:49.298Z,88.10
2019-03-03T22:00:26.490Z,88.10
2019-03-03T22:02:53.525Z,88.20
2019-03-03T22:05:20.593Z,88.00
2019-03-03T22:07:47.756Z,88.00
2019-03-03T22:10:17.565Z,87.10
2019-03-03T22:12:44.634Z,89.60
2019-03-03T22:15:12.783Z,87.50
2019-03-03T22:17:39.835Z,87.50
2019-03-03T22:20:08.077Z,87.60
2019-03-03T22:22:35.171Z,87.10
2019-03-03T22:25:02.497Z,87.10
2019-03-03T22:27:30.708Z,86.80
2019-03-03T22:29:57.757Z,86.70
2019-03-03T22:32:24.721Z,86.50
2019-03-03T22:34:54.134Z,86.60
2019-03-03T22:37:21.177Z,86.50
2019-03-03T22:39:48.225Z,86.20
2019-03-03T22:42:15.187Z,86.10
2019-03-03T22:44:42.235Z,86.20
2019-03-03T22:47:09.256Z,86.20
2019-03-03T22:49:36.536Z,86.30
2019-03-03T22:52:03.561Z,86.30
2019-03-03T22:54:30.856Z,86.00
2019-03-03T22:57:00.285Z,86.00
2019-03-03T22:59:27.314Z,86.00
2019-03-03T23:01:55.598Z,86.10
2019-03-03T23:04:41.373Z,86.40
2019-03-03T23:07:23.578Z,86.40
2019-03-03T23:10:20.196Z,86.80
2019-03-03T23:12:59.630Z,87.20
2019-03-03T23:18:31.362Z,87.70
2019-03-03T23:21:02.126Z,88.90
2019-03-03T23:23:54.193Z,89.00
2019-03-03T23:26:21.225Z,89.70
2019-03-03T23:28:48.197Z,90.00
2019-03-03T23:31:15.233Z,90.20
2019-03-03T23:33:43.254Z,90.30
2019-03-03T23:36:10.397Z,90.40
2019-03-03T23:38:37.374Z,90.50
2019-03-03T23:41:04.405Z,90.50
2019-03-03T23:43:31.441Z,90.70
2019-03-03T23:45:58.590Z,90.80
2019-03-03T23:48:26.791Z,90.90
2019-03-03T23:50:54.494Z,90.80
2019-03-03T23:53:21.538Z,91.30
2019-03-03T23:55:48.505Z,91.30
2019-03-03T23:58:15.541Z,91.30
